Aérodrome :
LOGIN :

S'inscrire | Disclaimer

   EN    FR    IT 

 










Légende :    VFR   VFR Marginal   IFR   IFR Intensif   IFR Très Intensif
Visi : 
Plafond : 
>= 8 km
>= 3000ft
5 à 8 km
1000 à 3000 ft
1500m à 5 km
500 à 1000 ft
800 à 1500m
200 à 500 ft
< 800m
< 200 ft
Symboles :   Orages  Brouillard  Fortes neiges  Fortes précipitations  Vent > 20 kt
SIGMETs :   Divers  Orages  Givrage  Turbulence  Onde Orograph.  Cendres Volcan.






- Altitude de l'aérodrome : 209 ft
- Code IATA : CLY


LFKC - Calvi

DERNIER METAR :
  • 272200Z AUTO 18003KT 9999 SCT028 07/06 Q1024

METARs EXPIRÉS :
  • 272130Z AUTO VRB01KT 9999 SCT029 08/07 Q1024
  • 272100Z AUTO 00000KT 9999 FEW029 09/08 Q1024
  • 272030Z AUTO 00000KT 9999 BKN030 BKN180 11/09 Q1024
  • 272000Z AUTO 00000KT 9999 BKN029 11/09 Q1023
  • 271930Z AUTO 00000KT 9999 BKN029 BKN034 11/10 Q1023

TAF TAF LFKC
Valide du 27 à 15h jusqu'au 28 à 15h UTC


271400Z 2715/2815 35010KT 9999 BKN025 TX16/2812Z TN05/2812Z
TEMPO 2715/2722 BKN012
BECMG 2722/2724 18004KT CAVOK
BECMG 2809/2811 36010KT
ATIS : +33 4 95 65 82 49



MET'MAP, la Météo Aéronautique d'un coup d'oeil ! - Copyright ORBIFLY Décembre 2007 - Disclaimer

ORBIFLY MET'MAP TEAM :

Programmation & Développement : Alexandra Zaïnal
Sur une idée originale de : Baudouin d'Aumeries
Assistance à la programmation : Marc-Olivier Méhu
Soutien technique & logistique : Manuel Goepfert

Contact : metmap@orbifly.com




SOURCES & CREDITS :

   NOAA